Latest Weather Observations for Halls Creek

IDD60801

Issued at 1:01 pm CST Monday 2 May 2016 (issued every 30 minutes, with the page automatically refreshed every 10 minutes)

About weather observations | Map of weather stations | Latest weather observations for NT | Other Formats
Station Details ID: 002012 Name: HALLS CREEK AIRPORT Lat: -18.23 Lon: 127.66 Height: 422.0 m
Data from the previous 72 hours. | See also: Recent months at Halls Creek
Date/Time
CST
Temp
°C
App
Temp
°C
Dew
Point
Rel
Hum
%
Delta-T
°C
Wind Press
QNH
hPa
Press
MSL
hPa
Rain
since 9 am
mm
Dir
 
Spd
km/h
Gust
km/h
Spd
kts
Gust
kts
02/12:30pm 34.0 34.8 15.8 33 11.6 NE 6 17 3 9 1014.0 - 0.0
02/12:00pm 34.2 34.9 16.1 34 11.6 N 7 19 4 10 1014.5 - 0.0
02/11:30am 34.4 34.6 15.7 32 11.9 NNE 9 20 5 11 1015.1 - 0.0
02/11:00am 34.4 35.4 16.8 35 11.4 NW 7 19 4 10 1015.1 - 0.0
02/10:30am 33.0 33.5 16.5 37 10.6 WNW 9 17 5 9 1015.5 1013.4 0.0
02/10:00am 31.3 33.2 16.8 41 9.3 SE 2 6 1 3 1015.4 - 0.0
02/09:30am 29.2 31.0 16.4 46 8.1 ENE 2 6 1 3 1015.3 - 0.0
02/09:00am 28.3 30.5 16.4 48 7.5 CALM 0 4 0 2 1014.8 - 0.0
02/08:30am 26.5 28.2 16.1 52 6.5 NE 2 4 1 2 1014.6 - 0.0
02/08:00am 25.8 27.1 15.2 52 6.5 SE 2 4 1 2 1014.2 - 0.0
02/07:30am 24.5 - 15.6 57 5.5 - - - - - 1013.7 1011.6 0.0
02/07:00am 24.2 - 13.8 52 6.2 - - - - - 1013.3 - 0.0
02/06:30am 23.8 24.7 13.9 54 5.9 N 2 4 1 2 1013.1 - 0.0
02/06:00am 24.1 25.1 14.3 54 5.9 E 2 2 1 1 1012.9 - 0.0
02/05:30am 24.0 24.9 14.0 53 6.0 ENE 2 2 1 1 1012.8 - 0.0
02/05:00am 24.0 25.5 14.6 55 5.7 CALM 0 2 0 1 1012.6 - 0.0
02/04:30am 24.4 25.3 13.9 52 6.3 WNW 2 2 1 1 1012.6 1010.4 0.0
02/04:00am 24.3 25.6 14.0 52 6.2 CALM 0 0 0 0 1012.7 - 0.0
02/03:30am 24.5 25.5 13.2 49 6.7 CALM 0 2 0 1 1012.8 - 0.0
02/03:00am 24.2 25.0 13.6 51 6.3 ESE 2 4 1 2 1013.0 - 0.0
02/02:30am 24.9 25.9 14.3 51 6.4 ENE 2 4 1 2 1013.0 - 0.0
02/02:00am 25.0 26.3 14.0 50 6.6 CALM 0 2 0 1 1013.1 - 0.0
02/01:30am 25.8 26.6 13.8 47 7.2 W 2 2 1 1 1013.4 1011.3 0.0
02/01:00am 25.9 26.4 12.7 44 7.8 WNW 2 4 1 2 1013.6 - 0.0
02/12:30am 25.7 26.6 12.9 45 7.6 CALM 0 0 0 0 1013.6 - 0.0
02/12:00am 26.1 27.2 13.4 45 7.6 CALM 0 0 0 0 1013.8 - 0.0
 
Date/Time
CST
Temp
°C
App
Temp
°C
Dew
Point
Rel
Hum
%
Delta-T
°C
Wind Press
QNH
hPa
Press
MSL
hPa
Rain
since 9 am
mm
Dir
 
Spd
km/h
Gust
km/h
Spd
kts
Gust
kts
01/11:30pm 26.5 27.8 14.1 46 7.5 CALM 0 4 0 2 1014.0 - 0.0
01/11:00pm 26.7 27.7 14.2 46 7.6 NE 2 2 1 1 1014.0 - 0.0
01/10:30pm 27.0 28.3 14.2 45 7.8 CALM 0 2 0 1 1014.0 1011.9 0.0
01/10:00pm 27.9 28.8 14.1 42 8.4 NE 2 4 1 2 1014.1 - 0.0
01/09:30pm 28.5 28.6 12.8 38 9.4 NNW 4 6 2 3 1014.1 - 0.0
01/09:00pm 30.0 30.4 12.5 34 10.5 NE 2 4 1 2 1013.8 - 0.0
01/08:30pm 29.0 29.8 13.7 39 9.3 E 2 6 1 3 1013.6 - 0.0
01/08:00pm 29.5 30.8 14.0 38 9.5 CALM 0 2 0 1 1013.2 - 0.0
01/07:30pm 31.2 31.3 12.6 32 11.2 NW 4 4 2 2 1012.8 1010.6 0.0
01/07:00pm 32.2 32.2 12.3 29 12.0 NNW 4 4 2 2 1012.4 - 0.0
01/06:30pm 33.6 33.6 12.3 27 12.9 NNW 4 6 2 3 1012.1 - 0.0
01/06:00pm 34.7 34.1 10.3 22 14.4 NNE 4 7 2 4 1011.9 - 0.0
01/05:30pm 35.7 34.6 9.9 20 15.2 N 6 13 3 7 1011.6 - 0.0
01/05:00pm 36.1 34.7 9.6 20 15.6 E 7 13 4 7 1011.3 - 0.0
01/04:30pm 36.6 35.2 9.6 19 15.9 E 7 15 4 8 1011.3 1009.2 0.0
01/04:00pm 35.9 34.8 9.8 20 15.4 NE 6 17 3 9 1011.3 - 0.0
01/03:30pm 36.1 34.5 10.1 20 15.4 E 9 20 5 11 1011.6 - 0.0
01/03:00pm 35.6 34.6 10.3 21 15.0 E 6 15 3 8 1011.9 - 0.0
01/02:30pm 34.7 33.7 10.3 22 14.4 NNE 6 15 3 8 1012.4 - 0.0
01/02:00pm 34.8 33.6 10.2 22 14.5 ENE 7 22 4 12 1012.7 - 0.0
01/01:30pm 34.1 34.2 11.4 25 13.6 NE 2 7 1 4 1013.1 1010.9 0.0
01/01:00pm 34.2 33.8 12.3 26 13.3 NW 6 9 3 5 1013.6 - 0.0
01/12:30pm 34.7 34.0 12.1 25 13.7 N 7 19 4 10 1014.1 - 0.0
01/12:00pm 35.0 34.3 12.1 25 13.9 ENE 7 17 4 9 1014.5 - 0.0
01/11:30am 34.2 33.4 11.0 24 13.8 NE 6 15 3 8 1014.9 - 0.0
01/11:00am 33.4 33.2 10.4 24 13.5 W 2 7 1 4 1015.4 - 0.0
01/10:30am 32.7 32.3 11.1 26 12.8 ENE 4 9 2 5 1015.6 1013.5 0.0
01/10:00am 31.4 31.0 11.2 29 11.9 SE 4 7 2 4 1015.5 - 0.0
01/09:30am 30.5 29.3 10.3 28 11.7 WSW 7 11 4 6 1015.2 - 0.0
01/09:00am 29.2 29.0 11.7 34 10.3 SW 4 11 2 6 1015.3 - 0.0
01/08:30am 27.1 27.8 13.4 42 8.2 E 2 6 1 3 1015.1 - 0.0
01/08:00am 23.9 23.4 12.2 48 6.8 WSW 6 7 3 4 1014.7 - 0.0
01/07:30am 21.6 - 13.2 59 4.9 - - - - - 1014.4 1012.3 0.0
01/07:00am 22.6 - 12.0 51 6.1 - - - - - 1014.2 - 0.0
01/06:30am 22.5 22.8 12.3 52 5.9 NNW 2 4 1 2 1013.7 - 0.0
01/06:00am 23.1 22.8 11.6 48 6.6 NW 4 6 2 3 1013.4 - 0.0
01/05:30am 22.0 21.8 11.9 52 5.8 SSW 4 7 2 4 1013.2 - 0.0
01/05:00am 22.6 23.1 12.8 54 5.7 WNW 2 2 1 1 1013.0 - 0.0
01/04:30am 23.2 23.3 12.6 51 6.2 NW 4 6 2 3 1012.9 1010.7 0.0
01/04:00am 23.1 23.1 12.4 51 6.2 NNE 4 9 2 5 1013.0 - 0.0
01/03:30am 23.1 23.6 12.8 52 6.0 N 2 4 1 2 1012.9 - 0.0
01/03:00am 22.9 23.5 13.2 54 5.7 SE 2 6 1 3 1012.9 - 0.0
01/02:30am 24.4 24.3 12.0 46 7.2 NNW 4 6 2 3 1013.0 - 0.0
01/02:00am 24.9 24.9 12.4 45 7.3 N 4 6 2 3 1013.3 - 0.0
01/01:30am 27.1 26.8 11.5 37 9.1 W 4 6 2 3 1013.4 1010.6 0.0
01/01:00am 26.9 27.0 11.4 38 9.0 W 2 4 1 2 1013.7 - 0.0
01/12:30am 26.4 26.7 12.3 41 8.3 W 2 4 1 2 1014.0 - 0.0
01/12:00am 25.8 26.4 13.2 45 7.5 NNW 2 2 1 1 1014.4 - 0.0
 
Date/Time
CST
Temp
°C
App
Temp
°C
Dew
Point
Rel
Hum
%
Delta-T
°C
Wind Press
QNH
hPa
Press
MSL
hPa
Rain
since 9 am
mm
Dir
 
Spd
km/h
Gust
km/h
Spd
kts
Gust
kts
30/11:30pm 26.5 27.2 13.3 44 7.9 NNE 2 4 1 2 1014.4 - 0.0
30/11:00pm 27.2 27.7 12.7 40 8.6 S 2 4 1 2 1014.4 - 0.0
30/10:30pm 28.0 29.3 14.2 42 8.4 CALM 0 2 0 1 1014.4 1011.7 0.0
30/10:00pm 28.5 29.6 14.7 43 8.5 WSW 2 4 1 2 1014.5 - 0.0
30/09:30pm 28.9 28.8 12.2 35 9.9 WSW 4 6 2 3 1014.4 - 0.0
30/09:00pm 29.2 30.0 12.7 36 9.9 CALM 0 2 0 1 1014.1 - 0.0
30/08:30pm 28.5 29.1 13.2 39 9.2 W 2 2 1 1 1013.7 - 0.0
30/08:00pm 29.2 29.7 12.7 36 9.9 NW 2 4 1 2 1013.3 - 0.0
30/07:30pm 30.1 30.8 13.3 35 10.2 WNW 2 4 1 2 1013.0 1010.2 0.0
30/07:00pm 31.0 31.3 12.1 31 11.3 NW 2 4 1 2 1012.8 - 0.0
30/06:30pm 32.2 32.8 13.2 31 11.6 NNW 2 2 1 1 1012.4 - 0.0
30/06:00pm 33.6 32.9 10.0 23 13.8 NNW 4 7 2 4 1012.2 - 0.0
30/05:30pm 33.8 33.0 9.6 22 14.1 NNE 4 9 2 5 1012.0 - 0.0
30/05:00pm 34.4 33.1 10.1 22 14.3 NNW 7 11 4 6 1011.8 - 0.0
30/04:30pm 34.5 33.6 9.4 21 14.6 N 4 11 2 6 1011.7 1009.0 0.0
30/04:00pm 35.4 34.0 8.8 19 15.4 NE 6 13 3 7 1011.6 - 0.0
30/03:30pm 34.9 33.7 9.6 21 14.8 ESE 6 11 3 6 1011.8 - 0.0
30/03:00pm 34.0 33.0 10.2 23 14.0 ESE 6 11 3 6 1012.0 - 0.0
30/02:30pm 34.0 33.1 9.4 22 14.3 W 4 11 2 6 1012.6 - 0.0
30/02:00pm 33.9 32.7 9.7 22 14.1 WNW 6 11 3 6 1013.0 - 0.0
30/01:30pm 33.7 32.3 9.7 23 14.0 NW 7 15 4 8 1013.6 1010.8 0.0
30/01:00pm 33.8 33.0 10.9 24 13.6 SE 6 15 3 8 1013.9 - 0.0
30/12:30pm 34.3 33.7 10.4 23 14.1 SW 4 13 2 7 1014.4 - 0.0
30/12:00pm 33.5 32.8 10.1 23 13.7 WNW 4 15 2 8 1015.1 - 0.0
30/11:30am 33.1 32.2 10.7 25 13.2 NW 6 13 3 7 1015.5 - 0.0
30/11:00am 32.4 31.5 10.6 26 12.8 WNW 6 11 3 6 1015.7 - 0.0
30/10:30am 31.5 30.5 10.4 27 12.3 W 6 13 3 7 1015.9 1013.2 0.0
30/10:00am 30.8 30.1 10.0 27 12.0 SW 4 11 2 6 1016.0 - 0.0
30/09:30am 30.1 28.8 9.9 28 11.6 W 7 13 4 7 1015.8 - 0.0
30/09:00am 28.3 28.1 11.8 36 9.7 W 4 9 2 5 1015.6 - 0.0
30/08:30am 25.2 25.6 12.4 45 7.5 NE 2 6 1 3 1015.2 - 0.0
30/08:00am 23.1 23.7 13.0 53 5.9 NE 2 6 1 3 1014.6 - 0.0
30/07:30am 22.2 - 13.5 57 5.1 - - - - - 1014.2 1011.5 0.0
30/07:00am 23.2 23.6 12.6 51 6.2 NNW 2 4 1 2 1013.8 - 0.0
30/06:30am 23.1 23.5 12.6 51 6.1 N 2 4 1 2 1013.6 - 0.0
30/06:00am 23.3 23.4 12.7 51 6.2 NNE 4 4 2 2 1013.4 - 0.0
30/05:30am 23.3 24.0 13.5 54 5.8 NNW 2 2 1 1 1013.2 - 0.0
30/05:00am 24.0 25.0 13.2 50 6.4 CALM 0 0 0 0 1013.0 - 0.0
30/04:30am 23.7 24.4 13.4 52 6.1 SE 2 4 1 2 1012.9 1010.1 0.0
30/04:00am 25.1 25.7 13.1 47 7.1 NW 2 6 1 3 1012.9 - 0.0
30/03:30am 26.3 25.7 11.7 40 8.5 NW 6 9 3 5 1013.0 - 0.0
30/03:00am 26.3 26.2 12.2 41 8.3 WNW 4 7 2 4 1013.1 - 0.0
30/02:30am 26.9 26.8 12.1 39 8.7 WNW 4 6 2 3 1013.3 - 0.0
30/02:00am 26.3 27.5 13.9 46 7.5 CALM 0 0 0 0 1013.3 - 0.0
30/01:30am 27.3 28.1 13.7 43 8.2 NW 2 6 1 3 1013.5 1010.7 0.0
30/01:00am 28.0 28.2 13.0 39 9.0 NW 4 6 2 3 1013.8 - 0.0
30/12:30am 27.6 28.7 14.7 45 7.9 NNW 2 4 1 2 1013.9 - 0.0
30/12:00am 27.6 28.5 14.1 43 8.2 NE 2 4 1 2 1014.0 - 0.0
 
Date/Time
CST
Temp
°C
App
Temp
°C
Dew
Point
Rel
Hum
%
Delta-T
°C
Wind Press
QNH
hPa
Press
MSL
hPa
Rain
since 9 am
mm
Dir
 
Spd
km/h
Gust
km/h
Spd
kts
Gust
kts
29/11:30pm 27.6 29.2 14.9 45 7.8 CALM 0 2 0 1 1014.2 - 0.0
29/11:00pm 27.9 29.8 15.7 47 7.6 CALM 0 2 0 1 1014.4 - 0.0
29/10:30pm 28.0 29.0 14.2 42 8.4 N 2 4 1 2 1014.4 1011.7 0.0
29/10:00pm 28.8 29.9 14.5 41 8.8 NNE 2 4 1 2 1014.5 - 0.0
29/09:30pm 28.6 29.9 15.2 44 8.3 ESE 2 2 1 1 1014.5 - 0.0
29/09:00pm 29.4 30.5 14.5 40 9.2 N 2 2 1 1 1014.1 - 0.0
29/08:30pm 30.0 30.9 14.0 37 9.8 NNW 2 4 1 2 1013.8 - 0.0
29/08:00pm 30.2 31.0 13.6 36 10.1 NNW 2 4 1 2 1013.6 - 0.0
29/07:30pm 31.1 31.6 12.7 32 11.1 N 2 4 1 2 1013.3 1010.5 0.0
29/07:00pm 31.7 32.1 12.5 31 11.6 N 2 4 1 2 1013.1 - 0.0
29/06:30pm 32.2 32.1 12.0 29 12.1 N 4 7 2 4 1012.8 - 0.0
29/06:00pm 32.9 33.0 11.4 27 12.8 N 2 7 1 4 1012.4 - 0.0
29/05:30pm 33.1 33.7 13.0 29 12.3 E 2 4 1 2 1012.1 - 0.0
29/05:00pm 33.4 33.6 11.8 26 13.0 NE 2 13 1 7 1011.8 - 0.0
29/04:30pm 33.5 32.4 10.7 24 13.5 NNW 7 15 4 8 1011.6 1008.9 0.0
29/04:00pm 34.6 33.1 10.7 23 14.2 NNW 9 20 5 11 1011.5 - 0.0
29/03:30pm 33.4 33.2 11.8 26 13.0 E 4 11 2 6 1011.7 - 0.0
29/03:00pm 32.8 32.5 11.3 27 12.8 N 4 11 2 6 1011.9 - 0.0

Other Formats:

Comma delimited format used in spreadsheet applications
http://www.bom.gov.au/fwo/IDD60801/IDD60801.94212.axf

JavaScript Object Notation format (JSON) in row-major order
http://www.bom.gov.au/fwo/IDD60801/IDD60801.94212.json